sensor_id;sensor_type;location;lat;lon;timestamp;P1;P2;P0
67376;PMS7003;54261;46.086;6.588;2023-04-06T00:02:28;15.25;14.00;10.75
67376;PMS7003;54261;46.086;6.588;2023-04-06T00:07:30;18.00;18.00;13.75
67376;PMS7003;54261;46.086;6.588;2023-04-06T00:12:32;14.25;13.25;10.50
67376;PMS7003;54261;46.086;6.588;2023-04-06T00:17:34;18.75;18.00;10.25
67376;PMS7003;54261;46.086;6.588;2023-04-06T00:22:36;18.75;16.50;10.50
67376;PMS7003;54261;46.086;6.588;2023-04-06T00:27:38;19.75;18.75;14.00
67376;PMS7003;54261;46.086;6.588;2023-04-06T00:32:40;18.75;16.50;11.50
67376;PMS7003;54261;46.086;6.588;2023-04-06T00:37:42;14.50;13.50;12.00
67376;PMS7003;54261;46.086;6.588;2023-04-06T00:42:44;19.00;18.00;11.25
67376;PMS7003;54261;46.086;6.588;2023-04-06T00:47:46;20.50;17.25;13.25
67376;PMS7003;54261;46.086;6.588;2023-04-06T00:52:47;11.00;11.00;9.00
67376;PMS7003;54261;46.086;6.588;2023-04-06T00:57:51;16.00;15.00;11.00
67376;PMS7003;54261;46.086;6.588;2023-04-06T01:02:54;17.75;14.00;10.00
67376;PMS7003;54261;46.086;6.588;2023-04-06T01:08:03;9.50;9.50;8.25
67376;PMS7003;54261;46.086;6.588;2023-04-06T01:13:05;13.00;12.75;10.00
67376;PMS7003;54261;46.086;6.588;2023-04-06T01:18:24;11.50;9.75;7.50
67376;PMS7003;54261;46.086;6.588;2023-04-06T01:23:35;14.75;12.25;10.25
67376;PMS7003;54261;46.086;6.588;2023-04-06T01:28:37;11.75;10.50;9.00
67376;PMS7003;54261;46.086;6.588;2023-04-06T01:33:48;13.50;12.50;9.25
67376;PMS7003;54261;46.086;6.588;2023-04-06T01:38:53;14.00;12.50;9.75
67376;PMS7003;54261;46.086;6.588;2023-04-06T01:44:04;10.75;10.25;8.50
67376;PMS7003;54261;46.086;6.588;2023-04-06T01:49:06;10.00;9.25;7.75
67376;PMS7003;54261;46.086;6.588;2023-04-06T01:54:11;10.50;10.00;9.00
67376;PMS7003;54261;46.086;6.588;2023-04-06T01:59:29;10.00;10.00;8.00
67376;PMS7003;54261;46.086;6.588;2023-04-06T02:04:32;10.00;10.00;8.00
67376;PMS7003;54261;46.086;6.588;2023-04-06T02:09:43;13.50;13.00;9.00
67376;PMS7003;54261;46.086;6.588;2023-04-06T02:14:52;13.00;11.00;9.00
67376;PMS7003;54261;46.086;6.588;2023-04-06T02:19:54;13.25;10.50;8.25
67376;PMS7003;54261;46.086;6.588;2023-04-06T02:24:56;9.50;9.50;7.50
67376;PMS7003;54261;46.086;6.588;2023-04-06T02:30:00;7.25;7.25;6.00
67376;PMS7003;54261;46.086;6.588;2023-04-06T02:35:02;10.25;6.50;5.50
67376;PMS7003;54261;46.086;6.588;2023-04-06T02:40:06;9.00;9.00;6.00
67376;PMS7003;54261;46.086;6.588;2023-04-06T02:45:08;11.25;9.50;6.25
67376;PMS7003;54261;46.086;6.588;2023-04-06T02:50:16;10.00;9.00;7.00
67376;PMS7003;54261;46.086;6.588;2023-04-06T02:55:27;10.50;9.00;6.75
67376;PMS7003;54261;46.086;6.588;2023-04-06T03:00:29;12.75;10.75;8.00
67376;PMS7003;54261;46.086;6.588;2023-04-06T03:05:31;10.75;9.25;5.25
67376;PMS7003;54261;46.086;6.588;2023-04-06T03:10:33;7.75;7.75;5.50
67376;PMS7003;54261;46.086;6.588;2023-04-06T03:15:34;7.00;7.00;5.00
67376;PMS7003;54261;46.086;6.588;2023-04-06T03:20:46;9.25;8.75;7.75
67376;PMS7003;54261;46.086;6.588;2023-04-06T03:25:50;7.75;6.75;5.00
67376;PMS7003;54261;46.086;6.588;2023-04-06T03:30:54;9.00;7.50;6.00
67376;PMS7003;54261;46.086;6.588;2023-04-06T03:36:16;7.75;7.75;6.00
67376;PMS7003;54261;46.086;6.588;2023-04-06T03:41:18;8.50;8.00;5.75
67376;PMS7003;54261;46.086;6.588;2023-04-06T03:46:29;7.25;6.25;5.00
67376;PMS7003;54261;46.086;6.588;2023-04-06T03:51:32;8.25;8.25;5.25
67376;PMS7003;54261;46.086;6.588;2023-04-06T03:56:35;11.00;9.00;6.25
67376;PMS7003;54261;46.086;6.588;2023-04-06T04:01:37;8.75;8.25;7.25
67376;PMS7003;54261;46.086;6.588;2023-04-06T04:06:40;9.50;8.75;6.25
67376;PMS7003;54261;46.086;6.588;2023-04-06T04:11:42;8.75;8.75;6.00
67376;PMS7003;54261;46.086;6.588;2023-04-06T04:16:44;9.25;8.50;7.75
67376;PMS7003;54261;46.086;6.588;2023-04-06T04:21:46;14.50;9.25;6.50
67376;PMS7003;54261;46.086;6.588;2023-04-06T04:26:52;9.25;8.00;5.00
67376;PMS7003;54261;46.086;6.588;2023-04-06T04:31:55;7.75;7.75;5.00
67376;PMS7003;54261;46.086;6.588;2023-04-06T04:36:57;9.50;9.00;6.00
67376;PMS7003;54261;46.086;6.588;2023-04-06T04:42:11;11.00;11.00;8.25
67376;PMS7003;54261;46.086;6.588;2023-04-06T04:47:19;9.00;8.00;6.00
67376;PMS7003;54261;46.086;6.588;2023-04-06T04:52:22;6.00;6.00;5.00
67376;PMS7003;54261;46.086;6.588;2023-04-06T04:57:45;8.75;8.75;7.00
67376;PMS7003;54261;46.086;6.588;2023-04-06T05:02:48;7.25;5.75;4.50
67376;PMS7003;54261;46.086;6.588;2023-04-06T05:07:54;38.75;35.25;22.00
67376;PMS7003;54261;46.086;6.588;2023-04-06T05:13:10;9.50;8.00;6.25
67376;PMS7003;54261;46.086;6.588;2023-04-06T05:18:13;5.00;4.00;2.00
67376;PMS7003;54261;46.086;6.588;2023-04-06T05:23:15;15.50;11.50;7.75
67376;PMS7003;54261;46.086;6.588;2023-04-06T05:28:18;15.50;12.50;9.50
67376;PMS7003;54261;46.086;6.588;2023-04-06T05:33:20;19.50;15.25;10.25
67376;PMS7003;54261;46.086;6.588;2023-04-06T05:38:36;19.25;13.00;8.25
67376;PMS7003;54261;46.086;6.588;2023-04-06T05:43:49;11.25;9.75;8.00
67376;PMS7003;54261;46.086;6.588;2023-04-06T05:48:51;8.50;8.50;6.50
67376;PMS7003;54261;46.086;6.588;2023-04-06T05:53:58;10.75;8.75;6.25
67376;PMS7003;54261;46.086;6.588;2023-04-06T05:59:01;12.50;11.25;7.50
67376;PMS7003;54261;46.086;6.588;2023-04-06T06:04:05;10.75;8.50;5.50
67376;PMS7003;54261;46.086;6.588;2023-04-06T06:09:10;8.00;6.00;5.00
67376;PMS7003;54261;46.086;6.588;2023-04-06T06:14:18;8.50;8.25;6.00
67376;PMS7003;54261;46.086;6.588;2023-04-06T06:19:20;4.75;4.75;4.00
67376;PMS7003;54261;46.086;6.588;2023-04-06T06:24:23;7.50;5.00;5.00
67376;PMS7003;54261;46.086;6.588;2023-04-06T06:29:25;6.00;6.00;5.00
67376;PMS7003;54261;46.086;6.588;2023-04-06T06:34:27;9.25;9.25;6.25
67376;PMS7003;54261;46.086;6.588;2023-04-06T06:39:31;6.25;5.50;4.00
67376;PMS7003;54261;46.086;6.588;2023-04-06T06:44:33;8.75;5.75;5.00
67376;PMS7003;54261;46.086;6.588;2023-04-06T06:49:35;4.00;4.00;2.00
67376;PMS7003;54261;46.086;6.588;2023-04-06T06:54:37;8.00;5.50;3.25
67376;PMS7003;54261;46.086;6.588;2023-04-06T06:59:39;5.75;5.75;4.50
67376;PMS7003;54261;46.086;6.588;2023-04-06T07:04:42;5.00;5.00;3.25
67376;PMS7003;54261;46.086;6.588;2023-04-06T07:09:44;5.00;5.00;3.00
67376;PMS7003;54261;46.086;6.588;2023-04-06T07:14:46;5.00;5.00;5.00
67376;PMS7003;54261;46.086;6.588;2023-04-06T07:19:48;6.25;5.25;4.50
67376;PMS7003;54261;46.086;6.588;2023-04-06T07:24:51;5.00;5.00;2.75
67376;PMS7003;54261;46.086;6.588;2023-04-06T07:29:52;7.00;7.00;5.75
67376;PMS7003;54261;46.086;6.588;2023-04-06T07:34:55;6.00;6.00;5.00
67376;PMS7003;54261;46.086;6.588;2023-04-06T07:39:58;5.75;5.75;4.75
67376;PMS7003;54261;46.086;6.588;2023-04-06T07:45:00;6.00;6.00;4.25
67376;PMS7003;54261;46.086;6.588;2023-04-06T07:50:02;10.50;10.50;8.25
67376;PMS7003;54261;46.086;6.588;2023-04-06T07:55:05;10.50;10.50;6.00
67376;PMS7003;54261;46.086;6.588;2023-04-06T08:00:07;8.75;8.75;6.75
67376;PMS7003;54261;46.086;6.588;2023-04-06T08:05:14;12.75;12.75;9.00
67376;PMS7003;54261;46.086;6.588;2023-04-06T08:10:15;10.50;10.25;8.00
67376;PMS7003;54261;46.086;6.588;2023-04-06T08:15:17;12.25;9.75;8.75
67376;PMS7003;54261;46.086;6.588;2023-04-06T08:20:19;9.00;9.00;5.50
67376;PMS7003;54261;46.086;6.588;2023-04-06T08:25:21;10.75;9.75;8.75
67376;PMS7003;54261;46.086;6.588;2023-04-06T08:30:23;13.00;13.00;9.25
67376;PMS7003;54261;46.086;6.588;2023-04-06T08:35:25;8.25;8.25;6.00
67376;PMS7003;54261;46.086;6.588;2023-04-06T08:40:28;13.75;12.50;9.50
67376;PMS7003;54261;46.086;6.588;2023-04-06T08:45:30;2.50;2.50;2.00
67376;PMS7003;54261;46.086;6.588;2023-04-06T08:50:32;11.25;9.75;8.50
67376;PMS7003;54261;46.086;6.588;2023-04-06T08:55:34;13.75;11.75;8.00
67376;PMS7003;54261;46.086;6.588;2023-04-06T09:00:37;8.00;8.00;6.50
67376;PMS7003;54261;46.086;6.588;2023-04-06T09:05:40;11.00;8.25;8.25
67376;PMS7003;54261;46.086;6.588;2023-04-06T09:10:43;15.25;12.25;10.25
67376;PMS7003;54261;46.086;6.588;2023-04-06T09:15:45;10.75;10.75;9.00
67376;PMS7003;54261;46.086;6.588;2023-04-06T09:20:56;11.00;11.00;10.00
67376;PMS7003;54261;46.086;6.588;2023-04-06T09:26:06;11.00;9.50;8.25
67376;PMS7003;54261;46.086;6.588;2023-04-06T09:31:09;14.75;14.75;10.75
67376;PMS7003;54261;46.086;6.588;2023-04-06T09:36:11;10.00;10.00;9.00
67376;PMS7003;54261;46.086;6.588;2023-04-06T09:41:20;14.75;14.00;9.00
67376;PMS7003;54261;46.086;6.588;2023-04-06T09:46:23;17.25;14.75;10.25
67376;PMS7003;54261;46.086;6.588;2023-04-06T09:51:25;14.00;12.25;8.00
67376;PMS7003;54261;46.086;6.588;2023-04-06T09:56:30;16.25;12.75;9.25
67376;PMS7003;54261;46.086;6.588;2023-04-06T10:01:34;11.25;11.25;8.00
67376;PMS7003;54261;46.086;6.588;2023-04-06T10:06:38;12.50;12.50;8.00
67376;PMS7003;54261;46.086;6.588;2023-04-06T10:11:40;13.00;12.75;8.75
67376;PMS7003;54261;46.086;6.588;2023-04-06T10:16:43;8.75;8.75;7.50
67376;PMS7003;54261;46.086;6.588;2023-04-06T10:21:45;11.25;11.25;8.25
67376;PMS7003;54261;46.086;6.588;2023-04-06T10:26:56;7.00;7.00;6.00
67376;PMS7003;54261;46.086;6.588;2023-04-06T10:31:59;9.25;8.00;6.25
67376;PMS7003;54261;46.086;6.588;2023-04-06T10:37:12;11.00;11.00;8.00
67376;PMS7003;54261;46.086;6.588;2023-04-06T10:42:15;9.00;9.00;7.00
67376;PMS7003;54261;46.086;6.588;2023-04-06T10:47:17;9.25;8.00;6.75
67376;PMS7003;54261;46.086;6.588;2023-04-06T10:52:19;14.75;9.75;7.75
67376;PMS7003;54261;46.086;6.588;2023-04-06T10:57:27;10.75;9.00;7.75
67376;PMS7003;54261;46.086;6.588;2023-04-06T11:02:30;6.75;6.75;6.00
67376;PMS7003;54261;46.086;6.588;2023-04-06T11:07:33;3.00;2.00;1.50
67376;PMS7003;54261;46.086;6.588;2023-04-06T11:12:35;9.75;8.75;7.00
67376;PMS7003;54261;46.086;6.588;2023-04-06T11:17:37;13.75;9.00;6.50
67376;PMS7003;54261;46.086;6.588;2023-04-06T11:22:48;11.25;11.00;8.50
67376;PMS7003;54261;46.086;6.588;2023-04-06T11:27:51;14.00;10.25;7.75
67376;PMS7003;54261;46.086;6.588;2023-04-06T11:33:00;11.25;10.25;7.25
67376;PMS7003;54261;46.086;6.588;2023-04-06T11:38:03;5.75;4.50;2.25
67376;PMS7003;54261;46.086;6.588;2023-04-06T11:43:05;11.75;10.75;8.00
67376;PMS7003;54261;46.086;6.588;2023-04-06T11:48:17;13.25;11.00;7.50
67376;PMS7003;54261;46.086;6.588;2023-04-06T11:53:21;11.00;8.00;6.50
67376;PMS7003;54261;46.086;6.588;2023-04-06T11:58:22;7.75;7.00;5.75
67376;PMS7003;54261;46.086;6.588;2023-04-06T12:03:24;7.00;7.00;5.00
67376;PMS7003;54261;46.086;6.588;2023-04-06T12:08:26;8.00;8.00;7.00
67376;PMS7003;54261;46.086;6.588;2023-04-06T12:13:28;5.25;5.00;4.00
67376;PMS7003;54261;46.086;6.588;2023-04-06T12:18:31;8.00;7.00;4.00
67376;PMS7003;54261;46.086;6.588;2023-04-06T12:23:33;9.75;8.50;5.00
67376;PMS7003;54261;46.086;6.588;2023-04-06T12:28:35;6.00;6.00;4.50
67376;PMS7003;54261;46.086;6.588;2023-04-06T12:33:36;6.50;5.00;4.00
67376;PMS7003;54261;46.086;6.588;2023-04-06T12:38:39;6.50;6.25;5.00
67376;PMS7003;54261;46.086;6.588;2023-04-06T12:43:43;5.50;3.75;2.00
67376;PMS7003;54261;46.086;6.588;2023-04-06T12:48:46;1.50;1.50;1.00
67376;PMS7003;54261;46.086;6.588;2023-04-06T12:53:48;1.25;1.25;1.00
67376;PMS7003;54261;46.086;6.588;2023-04-06T12:58:50;2.00;2.00;2.00
67376;PMS7003;54261;46.086;6.588;2023-04-06T13:03:53;3.00;1.00;1.00
67376;PMS7003;54261;46.086;6.588;2023-04-06T13:08:55;2.00;2.00;1.00
67376;PMS7003;54261;46.086;6.588;2023-04-06T13:13:57;2.00;2.00;2.00
67376;PMS7003;54261;46.086;6.588;2023-04-06T13:18:59;2.00;2.00;2.00
67376;PMS7003;54261;46.086;6.588;2023-04-06T13:24:02;1.50;1.50;1.25
67376;PMS7003;54261;46.086;6.588;2023-04-06T13:29:06;1.25;1.25;1.00
67376;PMS7003;54261;46.086;6.588;2023-04-06T13:34:08;3.50;3.50;2.50
67376;PMS7003;54261;46.086;6.588;2023-04-06T13:39:11;2.00;2.00;1.00
67376;PMS7003;54261;46.086;6.588;2023-04-06T13:44:13;3.50;3.00;2.00
67376;PMS7003;54261;46.086;6.588;2023-04-06T13:49:14;0.00;0.00;0.00
67376;PMS7003;54261;46.086;6.588;2023-04-06T13:54:17;3.75;3.75;3.00
67376;PMS7003;54261;46.086;6.588;2023-04-06T13:59:18;3.67;3.00;2.00
67376;PMS7003;54261;46.086;6.588;2023-04-06T14:04:20;4.00;4.00;3.00
67376;PMS7003;54261;46.086;6.588;2023-04-06T14:09:22;2.00;2.00;1.75
67376;PMS7003;54261;46.086;6.588;2023-04-06T14:14:24;3.00;3.00;2.67
67376;PMS7003;54261;46.086;6.588;2023-04-06T14:19:26;1.00;1.00;0.00
67376;PMS7003;54261;46.086;6.588;2023-04-06T14:24:28;3.00;3.00;2.00
67376;PMS7003;54261;46.086;6.588;2023-04-06T14:29:31;3.00;2.00;1.67
67376;PMS7003;54261;46.086;6.588;2023-04-06T14:34:32;3.00;3.00;2.00
67376;PMS7003;54261;46.086;6.588;2023-04-06T14:39:34;2.33;2.33;2.00
67376;PMS7003;54261;46.086;6.588;2023-04-06T14:44:36;2.00;2.00;2.00
67376;PMS7003;54261;46.086;6.588;2023-04-06T14:49:39;2.00;2.00;1.00
67376;PMS7003;54261;46.086;6.588;2023-04-06T14:54:41;3.00;3.00;3.00
67376;PMS7003;54261;46.086;6.588;2023-04-06T14:59:43;4.00;4.00;3.00
67376;PMS7003;54261;46.086;6.588;2023-04-06T15:04:45;3.50;3.50;3.00
67376;PMS7003;54261;46.086;6.588;2023-04-06T15:09:47;5.25;5.25;4.50
67376;PMS7003;54261;46.086;6.588;2023-04-06T15:14:49;2.00;2.00;2.00
67376;PMS7003;54261;46.086;6.588;2023-04-06T15:19:51;2.00;2.00;1.00
67376;PMS7003;54261;46.086;6.588;2023-04-06T15:24:54;3.00;3.00;2.25
67376;PMS7003;54261;46.086;6.588;2023-04-06T15:29:56;4.00;4.00;3.00
67376;PMS7003;54261;46.086;6.588;2023-04-06T15:34:59;2.00;2.00;1.00
67376;PMS7003;54261;46.086;6.588;2023-04-06T15:40:01;4.50;2.75;2.00
67376;PMS7003;54261;46.086;6.588;2023-04-06T15:45:03;4.00;4.00;3.00
67376;PMS7003;54261;46.086;6.588;2023-04-06T15:50:06;5.50;5.50;4.25
67376;PMS7003;54261;46.086;6.588;2023-04-06T15:55:09;6.75;4.75;3.00
67376;PMS7003;54261;46.086;6.588;2023-04-06T16:00:11;2.67;2.67;2.00
67376;PMS7003;54261;46.086;6.588;2023-04-06T16:05:13;3.25;3.25;2.50
67376;PMS7003;54261;46.086;6.588;2023-04-06T16:10:15;4.00;3.50;2.75
67376;PMS7003;54261;46.086;6.588;2023-04-06T16:15:17;3.25;3.25;2.25
67376;PMS7003;54261;46.086;6.588;2023-04-06T16:20:19;4.00;4.00;4.00
67376;PMS7003;54261;46.086;6.588;2023-04-06T16:25:21;7.00;5.75;5.00
67376;PMS7003;54261;46.086;6.588;2023-04-06T16:30:23;5.50;5.00;3.50
67376;PMS7003;54261;46.086;6.588;2023-04-06T16:35:27;8.50;7.50;5.75
67376;PMS7003;54261;46.086;6.588;2023-04-06T16:40:29;7.00;5.00;4.00
67376;PMS7003;54261;46.086;6.588;2023-04-06T16:45:31;2.75;2.75;2.25
67376;PMS7003;54261;46.086;6.588;2023-04-06T16:50:34;9.50;8.75;7.00
67376;PMS7003;54261;46.086;6.588;2023-04-06T16:55:40;8.00;5.00;4.00
67376;PMS7003;54261;46.086;6.588;2023-04-06T17:00:43;2.50;2.50;2.00
67376;PMS7003;54261;46.086;6.588;2023-04-06T17:05:46;4.75;4.75;3.00
67376;PMS7003;54261;46.086;6.588;2023-04-06T17:10:48;7.75;7.50;4.25
67376;PMS7003;54261;46.086;6.588;2023-04-06T17:16:03;5.75;4.50;3.50
67376;PMS7003;54261;46.086;6.588;2023-04-06T17:21:07;4.75;4.75;4.00
67376;PMS7003;54261;46.086;6.588;2023-04-06T17:26:15;5.25;4.50;3.75
67376;PMS7003;54261;46.086;6.588;2023-04-06T17:31:17;3.00;3.00;3.00
67376;PMS7003;54261;46.086;6.588;2023-04-06T17:36:19;5.25;4.00;3.00
67376;PMS7003;54261;46.086;6.588;2023-04-06T17:41:22;4.50;4.50;3.00
67376;PMS7003;54261;46.086;6.588;2023-04-06T17:46:24;4.00;3.00;3.00
67376;PMS7003;54261;46.086;6.588;2023-04-06T17:51:26;5.25;4.00;4.00
67376;PMS7003;54261;46.086;6.588;2023-04-06T17:56:28;4.25;4.25;4.00
67376;PMS7003;54261;46.086;6.588;2023-04-06T18:01:31;3.50;3.50;2.75
67376;PMS7003;54261;46.086;6.588;2023-04-06T18:06:33;4.00;4.00;4.00
67376;PMS7003;54261;46.086;6.588;2023-04-06T18:11:35;2.00;2.00;2.00
67376;PMS7003;54261;46.086;6.588;2023-04-06T18:16:37;3.25;3.25;2.00
67376;PMS7003;54261;46.086;6.588;2023-04-06T18:21:39;3.00;2.00;1.00
67376;PMS7003;54261;46.086;6.588;2023-04-06T18:26:41;7.25;4.50;2.25
67376;PMS7003;54261;46.086;6.588;2023-04-06T18:31:43;11.50;10.75;8.25
67376;PMS7003;54261;46.086;6.588;2023-04-06T18:36:50;20.75;20.75;16.50
67376;PMS7003;54261;46.086;6.588;2023-04-06T18:41:53;4.50;4.50;3.50
67376;PMS7003;54261;46.086;6.588;2023-04-06T18:46:54;8.50;8.50;6.75
67376;PMS7003;54261;46.086;6.588;2023-04-06T18:51:56;7.75;6.25;6.25
67376;PMS7003;54261;46.086;6.588;2023-04-06T18:57:00;3.00;3.00;3.00
67376;PMS7003;54261;46.086;6.588;2023-04-06T19:02:02;2.00;1.50;1.50
67376;PMS7003;54261;46.086;6.588;2023-04-06T19:07:04;2.50;1.00;0.00
67376;PMS7003;54261;46.086;6.588;2023-04-06T19:12:06;1.75;1.00;1.00
67376;PMS7003;54261;46.086;6.588;2023-04-06T19:17:08;3.00;2.00;2.00
67376;PMS7003;54261;46.086;6.588;2023-04-06T19:22:10;2.00;2.00;1.00
67376;PMS7003;54261;46.086;6.588;2023-04-06T19:27:15;1.33;1.33;1.33
67376;PMS7003;54261;46.086;6.588;2023-04-06T19:32:17;2.00;2.00;1.75
67376;PMS7003;54261;46.086;6.588;2023-04-06T19:37:19;2.00;2.00;1.50
67376;PMS7003;54261;46.086;6.588;2023-04-06T19:42:21;2.50;2.00;2.00
67376;PMS7003;54261;46.086;6.588;2023-04-06T19:47:23;1.00;1.00;1.00
67376;PMS7003;54261;46.086;6.588;2023-04-06T19:52:25;4.75;2.75;2.00
67376;PMS7003;54261;46.086;6.588;2023-04-06T19:57:27;6.25;5.75;4.50
67376;PMS7003;54261;46.086;6.588;2023-04-06T20:02:28;5.00;4.00;2.75
67376;PMS7003;54261;46.086;6.588;2023-04-06T20:07:30;3.00;3.00;3.00
67376;PMS7003;54261;46.086;6.588;2023-04-06T20:12:33;2.00;2.00;2.00
67376;PMS7003;54261;46.086;6.588;2023-04-06T20:17:35;3.00;3.00;2.75
67376;PMS7003;54261;46.086;6.588;2023-04-06T20:22:37;2.00;2.00;1.00
67376;PMS7003;54261;46.086;6.588;2023-04-06T20:27:38;1.00;1.00;1.00
67376;PMS7003;54261;46.086;6.588;2023-04-06T20:32:40;4.00;1.25;1.00
67376;PMS7003;54261;46.086;6.588;2023-04-06T20:37:42;3.00;2.00;1.25
67376;PMS7003;54261;46.086;6.588;2023-04-06T20:42:44;1.00;1.00;0.50
67376;PMS7003;54261;46.086;6.588;2023-04-06T20:47:46;3.00;3.00;2.00
67376;PMS7003;54261;46.086;6.588;2023-04-06T20:52:52;3.75;2.25;2.00
67376;PMS7003;54261;46.086;6.588;2023-04-06T20:57:54;1.33;1.33;1.00
67376;PMS7003;54261;46.086;6.588;2023-04-06T21:02:55;3.00;3.00;2.00
67376;PMS7003;54261;46.086;6.588;2023-04-06T21:07:57;2.25;2.00;1.00
67376;PMS7003;54261;46.086;6.588;2023-04-06T21:12:59;3.50;3.50;2.50
67376;PMS7003;54261;46.086;6.588;2023-04-06T21:18:01;2.25;2.25;1.75
67376;PMS7003;54261;46.086;6.588;2023-04-06T21:23:03;4.00;3.00;2.00
67376;PMS7003;54261;46.086;6.588;2023-04-06T21:28:05;4.00;3.00;2.25
67376;PMS7003;54261;46.086;6.588;2023-04-06T21:33:06;2.00;2.00;2.00
67376;PMS7003;54261;46.086;6.588;2023-04-06T21:38:08;2.75;2.00;2.00
67376;PMS7003;54261;46.086;6.588;2023-04-06T21:43:11;3.25;3.25;3.00
67376;PMS7003;54261;46.086;6.588;2023-04-06T21:48:12;5.00;5.00;4.00
67376;PMS7003;54261;46.086;6.588;2023-04-06T21:53:14;5.00;3.75;3.00
67376;PMS7003;54261;46.086;6.588;2023-04-06T21:58:16;4.50;4.50;4.00
67376;PMS7003;54261;46.086;6.588;2023-04-06T22:03:18;4.00;4.00;2.00
67376;PMS7003;54261;46.086;6.588;2023-04-06T22:08:20;4.25;3.75;2.00
67376;PMS7003;54261;46.086;6.588;2023-04-06T22:13:34;5.00;5.00;3.00
67376;PMS7003;54261;46.086;6.588;2023-04-06T22:18:36;5.00;5.00;4.00
67376;PMS7003;54261;46.086;6.588;2023-04-06T22:23:39;2.00;2.00;1.25
67376;PMS7003;54261;46.086;6.588;2023-04-06T22:28:43;3.00;3.00;2.75
67376;PMS7003;54261;46.086;6.588;2023-04-06T22:33:44;2.00;2.00;2.00
67376;PMS7003;54261;46.086;6.588;2023-04-06T22:38:46;4.25;3.25;3.00
67376;PMS7003;54261;46.086;6.588;2023-04-06T22:43:49;4.00;3.00;2.00
67376;PMS7003;54261;46.086;6.588;2023-04-06T22:48:51;4.25;3.25;2.50
67376;PMS7003;54261;46.086;6.588;2023-04-06T22:53:53;5.00;4.00;3.00
67376;PMS7003;54261;46.086;6.588;2023-04-06T22:58:55;2.00;2.00;2.00
67376;PMS7003;54261;46.086;6.588;2023-04-06T23:03:57;4.25;3.25;2.75
67376;PMS7003;54261;46.086;6.588;2023-04-06T23:08:59;2.50;2.50;2.00
67376;PMS7003;54261;46.086;6.588;2023-04-06T23:14:01;3.00;3.00;2.00
67376;PMS7003;54261;46.086;6.588;2023-04-06T23:19:03;3.00;3.00;2.00
67376;PMS7003;54261;46.086;6.588;2023-04-06T23:24:04;3.00;3.00;2.00
67376;PMS7003;54261;46.086;6.588;2023-04-06T23:29:06;1.50;1.00;1.00
67376;PMS7003;54261;46.086;6.588;2023-04-06T23:34:08;4.00;3.25;2.00
67376;PMS7003;54261;46.086;6.588;2023-04-06T23:39:10;3.00;3.00;2.00
67376;PMS7003;54261;46.086;6.588;2023-04-06T23:44:12;3.00;3.00;2.75
67376;PMS7003;54261;46.086;6.588;2023-04-06T23:49:13;2.50;2.00;1.50
67376;PMS7003;54261;46.086;6.588;2023-04-06T23:54:15;3.00;3.00;2.00
67376;PMS7003;54261;46.086;6.588;2023-04-06T23:59:17;1.75;1.75;1.00
